createdAt,value
2023-04-03T00:01:00.226Z,0.35
2023-04-03T00:03:26.939Z,0.60
2023-04-03T00:05:53.634Z,0.40
2023-04-03T00:08:20.396Z,0.10
2023-04-03T00:10:47.073Z,0.27
2023-04-03T00:13:13.750Z,0.38
2023-04-03T00:15:50.190Z,0.40
2023-04-03T00:18:16.694Z,0.32
2023-04-03T00:20:43.321Z,0.30
2023-04-03T00:23:09.788Z,0.13
2023-04-03T00:25:37.191Z,0.30
2023-04-03T00:28:05.016Z,0.20
2023-04-03T00:30:32.726Z,0.30
2023-04-03T00:33:05.519Z,0.30
2023-04-03T00:35:32.587Z,0.30
2023-04-03T00:37:59.427Z,0.38
2023-04-03T00:40:27.844Z,0.43
2023-04-03T00:43:00.498Z,0.30
2023-04-03T00:45:29.008Z,0.40
2023-04-03T00:47:56.778Z,0.50
2023-04-03T00:50:23.998Z,0.40
2023-04-03T00:52:50.529Z,0.35
2023-04-03T00:55:17.412Z,0.47
2023-04-03T00:57:48.017Z,0.50
2023-04-03T01:00:19.687Z,0.50
2023-04-03T01:02:46.540Z,0.40
2023-04-03T01:05:14.186Z,0.22
2023-04-03T01:07:43.578Z,0.30
2023-04-03T01:10:12.273Z,0.30
2023-04-03T01:12:41.152Z,0.30
2023-04-03T01:15:27.453Z,0.30
2023-04-03T01:17:58.934Z,0.40
2023-04-03T01:20:36.841Z,0.30
2023-04-03T01:23:09.843Z,0.30
2023-04-03T01:25:44.313Z,0.20
2023-04-03T01:28:26.333Z,0.40
2023-04-03T01:31:21.832Z,0.43
2023-04-03T01:33:48.369Z,0.30
2023-04-03T01:36:21.837Z,0.25
2023-04-03T01:38:49.275Z,0.33
2023-04-03T01:41:24.989Z,0.40
2023-04-03T01:43:51.491Z,0.20
2023-04-03T01:46:19.146Z,0.40
2023-04-03T01:48:45.745Z,0.40
2023-04-03T01:51:12.573Z,0.50
2023-04-03T01:53:39.353Z,0.45
2023-04-03T01:56:06.341Z,0.40
2023-04-03T01:58:33.041Z,0.32
2023-04-03T02:01:02.375Z,0.40
2023-04-03T02:03:28.991Z,0.40
2023-04-03T02:05:57.111Z,0.60
2023-04-03T02:08:23.801Z,0.70
2023-04-03T02:10:51.532Z,0.38
2023-04-03T02:13:19.163Z,0.50
2023-04-03T02:15:46.507Z,0.30
2023-04-03T02:18:13.457Z,0.30
2023-04-03T02:20:40.322Z,0.30
2023-04-03T02:23:07.225Z,0.30
2023-04-03T02:25:35.607Z,0.50
2023-04-03T02:28:03.278Z,0.30
2023-04-03T02:30:29.800Z,0.40
2023-04-03T02:32:56.801Z,0.40
2023-04-03T02:35:23.437Z,0.60
2023-04-03T02:37:52.782Z,0.63
2023-04-03T02:40:19.241Z,0.40
2023-04-03T02:42:46.202Z,0.57
2023-04-03T02:45:12.577Z,0.50
2023-04-03T02:47:39.214Z,0.50
2023-04-03T02:52:47.186Z,0.57
2023-04-03T02:55:16.929Z,0.45
2023-04-03T02:57:43.404Z,0.50
2023-04-03T03:00:10.903Z,0.30
2023-04-03T03:02:37.401Z,0.40
2023-04-03T03:05:04.238Z,0.30
2023-04-03T03:07:31.082Z,0.40
2023-04-03T03:09:57.594Z,0.43
2023-04-03T03:12:25.335Z,0.40
2023-04-03T03:14:52.039Z,0.30
2023-04-03T03:17:18.735Z,0.50
2023-04-03T03:19:46.805Z,0.40
2023-04-03T03:22:13.279Z,0.40
2023-04-03T03:24:39.769Z,0.38
2023-04-03T03:27:06.553Z,0.30
2023-04-03T03:29:32.921Z,0.20
2023-04-03T03:31:59.430Z,0.13
2023-04-03T03:34:26.108Z,0.30
2023-04-03T03:36:52.485Z,0.47
2023-04-03T03:39:27.937Z,0.43
2023-04-03T03:41:54.505Z,0.43
2023-04-03T03:44:21.594Z,0.40
2023-04-03T03:46:48.474Z,0.40
2023-04-03T03:49:14.935Z,0.60
2023-04-03T03:51:41.702Z,0.43
2023-04-03T03:54:08.357Z,0.70
2023-04-03T03:56:35.192Z,0.38
2023-04-03T03:59:01.596Z,0.50
2023-04-03T04:01:28.193Z,0.35
2023-04-03T04:03:55.938Z,0.40
2023-04-03T04:06:22.809Z,0.40
2023-04-03T04:08:50.031Z,0.40
2023-04-03T04:11:16.611Z,0.30
2023-04-03T04:13:43.165Z,0.57
2023-04-03T04:16:10.963Z,0.40
2023-04-03T04:18:37.559Z,0.67
2023-04-03T04:21:04.223Z,0.40
2023-04-03T04:23:30.641Z,0.45
2023-04-03T04:26:06.411Z,0.40
2023-04-03T04:28:32.996Z,0.50
2023-04-03T04:33:48.512Z,0.28
2023-04-03T04:36:15.947Z,0.50
2023-04-03T04:38:42.921Z,0.75
2023-04-03T04:41:09.408Z,0.57
2023-04-03T04:43:35.950Z,0.70
2023-04-03T04:46:15.556Z,0.60
2023-04-03T04:48:42.428Z,0.57
2023-04-03T04:51:09.131Z,0.50
2023-04-03T04:53:36.062Z,0.55
2023-04-03T04:56:02.981Z,0.60
2023-04-03T04:58:29.809Z,0.30
2023-04-03T05:01:04.157Z,0.47
2023-04-03T05:03:30.998Z,0.75
2023-04-03T05:05:57.626Z,0.40
2023-04-03T05:08:24.200Z,0.50
2023-04-03T05:10:50.919Z,0.70
2023-04-03T05:13:17.616Z,0.60
2023-04-03T05:15:44.051Z,0.50
2023-04-03T05:18:10.737Z,0.70
2023-04-03T05:20:38.040Z,0.40
2023-04-03T05:23:13.041Z,0.47
2023-04-03T05:25:40.244Z,1.33
2023-04-03T05:28:07.284Z,0.82
2023-04-03T05:30:36.193Z,0.60
2023-04-03T05:33:03.520Z,0.70
2023-04-03T05:35:30.026Z,0.73
2023-04-03T05:37:56.702Z,0.80
2023-04-03T05:40:23.509Z,0.60
2023-04-03T05:42:50.068Z,0.65
2023-04-03T05:45:16.638Z,0.83
2023-04-03T05:47:43.150Z,0.63
2023-04-03T05:50:10.045Z,1.33
2023-04-03T05:52:38.930Z,1.10
2023-04-03T05:55:06.343Z,0.60
2023-04-03T05:57:32.949Z,0.50
2023-04-03T05:59:59.521Z,0.40
2023-04-03T06:02:27.295Z,0.65
2023-04-03T06:04:54.238Z,1.15
2023-04-03T06:07:23.856Z,0.75
2023-04-03T06:09:52.222Z,0.40
2023-04-03T06:12:19.962Z,0.75
2023-04-03T06:14:46.851Z,0.50
2023-04-03T06:17:13.458Z,0.70
2023-04-03T06:19:41.018Z,0.75
2023-04-03T06:22:08.213Z,0.50
2023-04-03T06:24:44.890Z,0.40
2023-04-03T06:27:12.663Z,0.70
2023-04-03T06:29:39.436Z,0.60
2023-04-03T06:32:06.397Z,0.52
2023-04-03T06:34:33.222Z,0.60
2023-04-03T06:37:00.011Z,0.77
2023-04-03T06:39:30.736Z,0.60
2023-04-03T06:41:57.270Z,0.68
2023-04-03T06:44:39.859Z,0.82
2023-04-03T06:47:06.668Z,0.50
2023-04-03T06:49:33.134Z,0.55
2023-04-03T06:52:00.989Z,0.60
2023-04-03T06:54:28.976Z,0.60
2023-04-03T06:56:55.804Z,0.65
2023-04-03T06:59:22.333Z,0.60
2023-04-03T07:01:48.831Z,0.55
2023-04-03T07:04:16.358Z,0.60
2023-04-03T07:06:43.733Z,0.63
2023-04-03T07:09:12.007Z,0.70
2023-04-03T07:11:38.518Z,0.60
2023-04-03T07:14:05.206Z,0.50
2023-04-03T07:16:32.186Z,0.77
2023-04-03T07:18:59.067Z,0.63
2023-04-03T07:21:25.609Z,0.50
2023-04-03T07:23:59.252Z,0.40
2023-04-03T07:26:50.130Z,1.23
2023-04-03T07:29:22.920Z,0.50
2023-04-03T07:31:50.503Z,0.70
2023-04-03T07:34:17.201Z,0.50
2023-04-03T07:36:43.823Z,0.60
2023-04-03T07:39:24.310Z,0.70
2023-04-03T07:41:50.940Z,0.70
2023-04-03T07:44:26.554Z,0.70
2023-04-03T07:46:53.508Z,0.40
2023-04-03T07:52:00.425Z,0.73
2023-04-03T07:54:27.027Z,0.80
2023-04-03T07:57:00.073Z,0.63
2023-04-03T08:02:07.120Z,0.70
2023-04-03T08:04:33.804Z,0.52
2023-04-03T08:07:01.567Z,0.60
2023-04-03T08:09:43.064Z,0.70
2023-04-03T08:12:12.215Z,0.90
2023-04-03T08:14:50.553Z,0.80
2023-04-03T08:17:17.347Z,0.65
2023-04-03T08:19:43.800Z,0.45
2023-04-03T08:22:22.752Z,0.70
2023-04-03T08:24:58.518Z,0.50
2023-04-03T08:27:40.907Z,0.50
2023-04-03T08:30:08.368Z,0.50
2023-04-03T08:33:25.542Z,0.63
2023-04-03T08:36:47.121Z,0.60
2023-04-03T08:39:13.859Z,0.60
2023-04-03T08:41:59.760Z,0.60
2023-04-03T08:48:38.704Z,0.50
2023-04-03T08:51:24.822Z,0.50
2023-04-03T08:54:19.395Z,0.40
2023-04-03T08:56:46.281Z,0.30
2023-04-03T08:59:28.991Z,0.20
2023-04-03T09:02:14.024Z,0.20
2023-04-03T09:04:40.991Z,0.30
2023-04-03T09:07:30.046Z,0.50
2023-04-03T09:10:02.099Z,0.20
2023-04-03T09:12:48.070Z,0.30
2023-04-03T09:15:38.341Z,0.20
2023-04-03T09:18:24.657Z,0.20
2023-04-03T09:21:19.423Z,0.20
2023-04-03T09:24:08.779Z,0.20
2023-04-03T09:27:03.469Z,0.30
2023-04-03T09:29:52.205Z,0.20
2023-04-03T09:32:45.057Z,0.10
2023-04-03T09:35:44.886Z,0.20
2023-04-03T09:38:23.303Z,0.10
2023-04-03T09:41:18.130Z,0.40
2023-04-03T09:43:56.830Z,0.20
2023-04-03T09:46:58.220Z,0.40
2023-04-03T09:49:42.790Z,0.20
2023-04-03T09:52:25.526Z,0.20
2023-04-03T09:55:09.597Z,0.10
2023-04-03T09:57:38.547Z,0.20
2023-04-03T10:00:20.238Z,0.28
2023-04-03T10:02:53.331Z,0.10
2023-04-03T10:05:40.927Z,0.22
2023-04-03T10:08:35.152Z,0.20
2023-04-03T10:11:24.232Z,0.10
2023-04-03T10:14:17.685Z,0.10
2023-04-03T10:17:36.644Z,0.10
2023-04-03T10:20:28.568Z,0.15
2023-04-03T10:23:21.081Z,0.10
2023-04-03T10:26:21.536Z,0.10
2023-04-03T10:29:16.627Z,0.20
2023-04-03T10:32:33.118Z,0.10
2023-04-03T10:35:41.047Z,0.10
2023-04-03T10:38:44.150Z,0.10
2023-04-03T10:41:22.164Z,0.17
2023-04-03T10:44:14.157Z,0.10
2023-04-03T10:46:58.427Z,0.10
2023-04-03T10:49:37.994Z,0.20
2023-04-03T10:52:23.174Z,0.10
2023-04-03T10:55:18.470Z,0.10
2023-04-03T10:57:46.180Z,0.20
2023-04-03T11:00:26.072Z,0.10
2023-04-03T11:03:28.054Z,0.10
2023-04-03T11:05:56.417Z,0.10
2023-04-03T11:08:43.445Z,0.20
2023-04-03T11:14:32.989Z,0.20
2023-04-03T11:17:24.379Z,0.20
2023-04-03T11:20:34.464Z,0.30
2023-04-03T11:23:35.596Z,0.10
2023-04-03T11:26:33.315Z,0.20
2023-04-03T11:29:04.709Z,0.20
2023-04-03T11:32:12.902Z,0.40
2023-04-03T11:34:55.210Z,0.20
2023-04-03T11:37:34.105Z,0.20
2023-04-03T11:40:48.469Z,0.20
2023-04-03T11:43:43.648Z,0.15
2023-04-03T11:46:10.799Z,0.10
2023-04-03T11:48:37.227Z,0.20
2023-04-03T11:51:30.439Z,0.17
2023-04-03T11:54:46.643Z,0.20
2023-04-03T11:58:01.952Z,0.20
2023-04-03T12:00:53.139Z,0.20
2023-04-03T12:03:46.824Z,0.10
2023-04-03T12:06:17.848Z,0.20
2023-04-03T12:08:51.517Z,0.20
2023-04-03T12:11:36.707Z,0.30
2023-04-03T12:14:28.499Z,0.10
2023-04-03T12:16:58.905Z,0.10
2023-04-03T12:19:48.398Z,0.20
2023-04-03T12:22:21.702Z,0.20
2023-04-03T12:24:54.616Z,0.20
2023-04-03T12:27:30.652Z,0.20
2023-04-03T12:30:22.406Z,0.22
2023-04-03T12:33:26.640Z,0.20
2023-04-03T12:36:20.208Z,0.20
2023-04-03T12:39:22.949Z,0.28
2023-04-03T12:42:23.751Z,0.30
2023-04-03T12:45:21.826Z,0.20
2023-04-03T12:47:54.783Z,0.20
2023-04-03T12:50:34.173Z,0.20
2023-04-03T12:53:05.259Z,0.20
2023-04-03T12:55:32.011Z,0.27
2023-04-03T12:58:18.008Z,0.20
2023-04-03T13:00:44.667Z,0.32
2023-04-03T13:03:35.121Z,0.20
2023-04-03T13:06:04.758Z,0.20
2023-04-03T13:08:34.176Z,0.37
2023-04-03T13:11:16.296Z,0.20
2023-04-03T13:14:06.203Z,0.20
2023-04-03T13:16:35.946Z,0.20
2023-04-03T13:19:02.394Z,0.20
2023-04-03T13:24:15.629Z,0.22
2023-04-03T13:26:51.320Z,0.20
2023-04-03T13:29:31.742Z,0.10
2023-04-03T13:32:25.541Z,0.30
2023-04-03T13:34:52.448Z,0.20
2023-04-03T13:37:27.913Z,0.22
2023-04-03T13:40:09.289Z,0.10
2023-04-03T13:42:38.699Z,0.30
2023-04-03T13:45:18.988Z,0.20
2023-04-03T13:47:47.402Z,0.20
2023-04-03T13:50:30.136Z,0.20
2023-04-03T13:53:19.155Z,0.30
2023-04-03T13:56:00.939Z,0.30
2023-04-03T13:58:30.645Z,0.20
2023-04-03T14:01:01.651Z,0.40
2023-04-03T14:03:45.439Z,0.17
2023-04-03T14:06:16.413Z,0.20
2023-04-03T14:08:45.515Z,0.32
2023-04-03T14:11:23.453Z,0.20
2023-04-03T14:13:51.351Z,0.20
2023-04-03T14:16:33.200Z,0.20
2023-04-03T14:18:59.758Z,0.15
2023-04-03T14:21:27.162Z,0.30
2023-04-03T14:24:02.571Z,0.20
2023-04-03T14:26:31.187Z,0.20
2023-04-03T14:29:14.005Z,0.20
2023-04-03T14:31:42.929Z,0.38
2023-04-03T14:34:12.647Z,0.30
2023-04-03T14:36:45.966Z,0.20
2023-04-03T14:39:18.774Z,0.20
2023-04-03T14:41:46.763Z,0.35
2023-04-03T14:44:13.374Z,0.38
2023-04-03T14:46:56.250Z,0.20
2023-04-03T14:49:29.214Z,0.40
2023-04-03T14:51:57.212Z,0.27
2023-04-03T14:54:29.290Z,0.30
2023-04-03T14:56:57.891Z,0.22
2023-04-03T14:59:42.840Z,0.60
2023-04-03T15:02:31.636Z,0.47
2023-04-03T15:04:59.923Z,0.30
2023-04-03T15:07:29.640Z,0.63
2023-04-03T15:09:59.221Z,0.38
2023-04-03T15:12:26.867Z,0.20
2023-04-03T15:15:00.807Z,0.50
2023-04-03T15:17:28.809Z,0.20
2023-04-03T15:19:55.612Z,0.22
2023-04-03T15:22:22.087Z,0.30
2023-04-03T15:24:48.610Z,0.40
2023-04-03T15:27:24.309Z,0.28
2023-04-03T15:29:50.887Z,0.30
2023-04-03T15:32:17.567Z,0.30
2023-04-03T15:34:44.333Z,0.30
2023-04-03T15:37:11.008Z,0.30
2023-04-03T15:39:37.420Z,0.70
2023-04-03T15:42:09.743Z,0.30
2023-04-03T15:44:36.393Z,0.30
2023-04-03T15:47:03.466Z,0.40
2023-04-03T15:49:30.813Z,0.50
2023-04-03T15:51:57.242Z,0.40
2023-04-03T15:54:24.898Z,0.30
2023-04-03T15:57:00.486Z,0.38
2023-04-03T15:59:36.143Z,0.50
2023-04-03T16:02:06.454Z,0.40
2023-04-03T16:04:39.060Z,0.40
2023-04-03T16:07:17.299Z,0.23
2023-04-03T16:09:47.182Z,0.40
2023-04-03T16:12:21.936Z,0.32
2023-04-03T16:14:48.475Z,0.32
2023-04-03T16:17:15.714Z,0.32
2023-04-03T16:19:42.554Z,0.30
2023-04-03T16:22:09.349Z,0.32
2023-04-03T16:24:36.638Z,0.52
2023-04-03T16:27:10.794Z,0.60
2023-04-03T16:29:37.420Z,0.32
2023-04-03T16:32:04.742Z,0.40
2023-04-03T16:34:33.134Z,0.47
2023-04-03T16:36:59.895Z,0.40
2023-04-03T16:39:26.588Z,0.40
2023-04-03T16:41:53.111Z,0.30
2023-04-03T16:44:19.753Z,0.30
2023-04-03T16:46:47.809Z,0.30
2023-04-03T16:49:14.870Z,0.32
2023-04-03T16:51:41.637Z,0.30
2023-04-03T16:54:08.095Z,0.25
2023-04-03T16:56:34.659Z,0.30
2023-04-03T16:59:01.140Z,0.50
2023-04-03T17:01:27.765Z,0.28
2023-04-03T17:03:54.378Z,0.30
2023-04-03T17:06:24.473Z,0.38
2023-04-03T17:08:52.969Z,0.40
2023-04-03T17:11:19.826Z,0.40
2023-04-03T17:13:46.340Z,0.40
2023-04-03T17:16:16.075Z,0.25
2023-04-03T17:18:43.976Z,0.60
2023-04-03T17:21:11.534Z,0.40
2023-04-03T17:23:40.680Z,0.40
2023-04-03T17:26:07.256Z,0.30
2023-04-03T17:28:33.866Z,0.35
2023-04-03T17:31:02.010Z,0.20
2023-04-03T17:33:31.051Z,0.40
2023-04-03T17:36:01.488Z,0.22
2023-04-03T17:38:28.884Z,0.43
2023-04-03T17:40:59.599Z,0.30
2023-04-03T17:43:26.157Z,0.22
2023-04-03T17:45:52.909Z,0.30
2023-04-03T17:48:20.365Z,0.50
2023-04-03T17:50:47.081Z,0.20
2023-04-03T17:53:15.082Z,0.40
2023-04-03T17:55:49.118Z,0.30
2023-04-03T17:58:18.498Z,0.20
2023-04-03T18:00:45.050Z,0.30
2023-04-03T18:03:11.550Z,0.40
2023-04-03T18:05:38.533Z,0.35
2023-04-03T18:08:05.351Z,0.30
2023-04-03T18:10:32.048Z,0.40
2023-04-03T18:12:58.786Z,0.22
2023-04-03T18:15:26.105Z,0.30
2023-04-03T18:17:56.804Z,0.40
2023-04-03T18:20:24.183Z,0.40
2023-04-03T18:22:51.495Z,0.40
2023-04-03T18:25:18.340Z,0.80
2023-04-03T18:27:47.133Z,0.45
2023-04-03T18:30:16.989Z,0.50
2023-04-03T18:32:44.051Z,0.50
2023-04-03T18:35:10.922Z,0.67
2023-04-03T18:37:37.448Z,0.70
2023-04-03T18:40:04.247Z,0.32
2023-04-03T18:42:30.696Z,0.52
2023-04-03T18:45:01.474Z,0.60
2023-04-03T18:47:29.746Z,0.40
2023-04-03T18:49:56.910Z,0.60
2023-04-03T18:52:25.306Z,0.90
2023-04-03T18:54:51.874Z,0.60
2023-04-03T18:57:18.493Z,0.60
2023-04-03T18:59:45.005Z,0.60
2023-04-03T19:02:13.612Z,0.77
2023-04-03T19:04:40.580Z,0.70
2023-04-03T19:07:08.964Z,0.80
2023-04-03T19:12:16.297Z,0.63
2023-04-03T19:14:42.751Z,0.70
2023-04-03T19:17:09.270Z,0.70
2023-04-03T19:19:35.777Z,0.60
2023-04-03T19:22:02.197Z,0.40
2023-04-03T19:24:28.726Z,0.70
2023-04-03T19:26:55.482Z,0.70
2023-04-03T19:29:22.115Z,0.60
2023-04-03T19:31:48.854Z,0.50
2023-04-03T19:34:15.499Z,0.68
2023-04-03T19:36:43.222Z,0.63
2023-04-03T19:39:09.655Z,0.93
2023-04-03T19:41:37.006Z,1.52
2023-04-03T19:44:07.380Z,0.90
2023-04-03T19:46:34.801Z,0.95
2023-04-03T19:49:01.284Z,0.60
2023-04-03T19:51:27.831Z,0.63
2023-04-03T19:53:54.291Z,0.65
2023-04-03T19:56:21.417Z,0.70
2023-04-03T19:58:54.006Z,0.50
2023-04-03T20:01:22.380Z,0.63
2023-04-03T20:03:49.137Z,0.73
2023-04-03T20:06:15.865Z,0.80
2023-04-03T20:08:42.651Z,0.85
2023-04-03T20:11:09.797Z,0.50
2023-04-03T20:13:38.502Z,0.60
2023-04-03T20:16:17.406Z,0.82
2023-04-03T20:18:44.504Z,0.70
2023-04-03T20:21:12.225Z,1.17
2023-04-03T20:23:38.882Z,0.75
2023-04-03T20:26:10.777Z,0.97
2023-04-03T20:28:41.311Z,0.98
2023-04-03T20:31:09.332Z,1.08
2023-04-03T20:33:37.268Z,0.98
2023-04-03T20:36:04.443Z,1.20
2023-04-03T20:38:30.913Z,1.30
2023-04-03T20:40:57.676Z,1.38
2023-04-03T20:43:24.235Z,1.02
2023-04-03T20:45:51.247Z,0.93
2023-04-03T20:48:18.655Z,0.68
2023-04-03T20:50:46.650Z,0.83
2023-04-03T20:53:14.774Z,0.85
2023-04-03T20:55:42.406Z,0.90
2023-04-03T20:58:08.929Z,1.00
2023-04-03T21:00:38.298Z,0.95
2023-04-03T21:03:05.756Z,1.10
2023-04-03T21:05:36.928Z,1.02
2023-04-03T21:08:41.239Z,0.90
2023-04-03T21:11:45.482Z,0.95
2023-04-03T21:14:49.488Z,1.50
2023-04-03T21:17:16.234Z,0.77
2023-04-03T21:19:46.646Z,0.60
2023-04-03T21:22:16.421Z,0.70
2023-04-03T21:24:44.210Z,0.82
2023-04-03T21:27:11.023Z,0.80
2023-04-03T21:29:37.942Z,0.80
2023-04-03T21:32:04.707Z,0.80
2023-04-03T21:34:31.946Z,0.85
2023-04-03T21:37:04.621Z,0.77
2023-04-03T21:39:32.054Z,0.70
2023-04-03T21:41:58.590Z,0.90
2023-04-03T21:44:26.004Z,0.70
2023-04-03T21:46:54.382Z,0.60
2023-04-03T21:49:22.404Z,0.70
2023-04-03T21:51:51.904Z,0.90
2023-04-03T21:54:18.767Z,0.93
2023-04-03T21:56:45.432Z,1.10
2023-04-03T21:59:12.328Z,0.65
2023-04-03T22:01:39.552Z,0.70
2023-04-03T22:04:06.082Z,0.68
2023-04-03T22:06:32.644Z,0.87
2023-04-03T22:08:59.314Z,0.43
2023-04-03T22:11:27.256Z,0.40
2023-04-03T22:13:54.943Z,0.70
2023-04-03T22:16:25.313Z,0.90
2023-04-03T22:18:52.651Z,0.50
2023-04-03T22:21:20.537Z,0.82
2023-04-03T22:23:47.191Z,0.60
2023-04-03T22:26:14.141Z,0.70
2023-04-03T22:28:45.635Z,0.80
2023-04-03T22:31:16.199Z,1.00
2023-04-03T22:33:44.379Z,0.90
2023-04-03T22:36:12.635Z,0.95
2023-04-03T22:38:43.283Z,0.68
2023-04-03T22:41:10.707Z,0.73
2023-04-03T22:43:37.951Z,0.63
2023-04-03T22:46:06.991Z,0.65
2023-04-03T22:48:33.781Z,0.82
2023-04-03T22:51:01.090Z,0.60
2023-04-03T22:53:28.036Z,0.68
2023-04-03T22:56:08.266Z,0.70
2023-04-03T22:58:35.375Z,0.85
2023-04-03T23:01:07.512Z,0.80
2023-04-03T23:03:35.813Z,0.90
2023-04-03T23:06:03.814Z,0.80
2023-04-03T23:08:32.527Z,0.70
2023-04-03T23:11:00.048Z,0.90
2023-04-03T23:13:26.998Z,0.93
2023-04-03T23:16:01.090Z,0.90
2023-04-03T23:18:32.733Z,1.15
2023-04-03T23:21:00.320Z,0.93
2023-04-03T23:23:27.112Z,0.80
2023-04-03T23:26:18.771Z,0.90
2023-04-03T23:28:45.332Z,0.75
2023-04-03T23:31:12.027Z,0.80
2023-04-03T23:33:39.696Z,1.00
2023-04-03T23:36:07.968Z,0.70
2023-04-03T23:38:35.288Z,0.93
2023-04-03T23:41:03.979Z,0.90
2023-04-03T23:43:32.132Z,1.02
2023-04-03T23:45:58.911Z,1.27
2023-04-03T23:48:25.529Z,1.05
2023-04-03T23:50:52.128Z,0.82
2023-04-03T23:53:18.712Z,0.70
2023-04-03T23:55:45.187Z,0.98
2023-04-03T23:58:11.871Z,0.87
